Time;durP1;ratioP1;P1;durP2;ratioP2;P2;SDS_P1;SDS_P2;PMS_P1;PMS_P2;Temp;Humidity;BMP_temperature;BMP_pressure;BME280_temperature;BME280_humidity;BME280_pressure;Samples;Min_cycle;Max_cycle;Signal;HPM_P1;HPM_P2
2022/03/01 00:00:23;;;;;;;10.60;8.00;;;;;;;;;;5030377;28;20238;-85
2022/03/01 00:02:50;;;;;;;14.83;9.10;;;;;;;;;;5027437;28;20242;-85
2022/03/01 00:05:17;;;;;;;15.20;8.30;;;;;;;;;;5026341;28;20213;-85
2022/03/01 00:07:44;;;;;;;12.13;8.50;;;;;;;;;;5036156;28;20215;-85
2022/03/01 00:10:12;;;;;;;12.43;7.90;;;;;;;;;;5035736;28;20209;-85
2022/03/01 00:12:39;;;;;;;13.23;9.23;;;;;;;;;;5015833;28;20732;-85
2022/03/01 00:15:08;;;;;;;15.47;8.73;;;;;;;;;;5015671;28;20210;-85
2022/03/01 00:17:35;;;;;;;13.33;8.60;;;;;;;;;;4997034;28;20251;-85
2022/03/01 00:20:02;;;;;;;12.50;8.50;;;;;;;;;;4996414;28;20215;-85
2022/03/01 00:22:29;;;;;;;12.73;8.43;;;;;;;;;;5016448;28;20260;-85
2022/03/01 00:24:56;;;;;;;10.63;8.20;;;;;;;;;;5016235;28;20210;-85
2022/03/01 00:27:23;;;;;;;10.23;8.20;;;;;;;;;;5015323;28;20839;-85
2022/03/01 00:29:50;;;;;;;14.30;8.70;;;;;;;;;;5015837;28;20269;-85
2022/03/01 00:32:18;;;;;;;11.73;8.03;;;;;;;;;;5032255;28;20237;-85
2022/03/01 00:34:45;;;;;;;12.80;8.70;;;;;;;;;;5035210;28;20646;-85
2022/03/01 00:37:12;;;;;;;14.87;8.83;;;;;;;;;;5030780;28;20230;-85
2022/03/01 00:39:39;;;;;;;14.50;9.27;;;;;;;;;;5015454;28;20229;-85
2022/03/01 00:42:07;;;;;;;13.97;8.20;;;;;;;;;;5022282;28;20232;-85
2022/03/01 00:44:34;;;;;;;14.03;9.83;;;;;;;;;;5034872;28;20287;-85
2022/03/01 00:47:01;;;;;;;14.23;8.50;;;;;;;;;;5030171;28;20240;-85
2022/03/01 00:49:29;;;;;;;11.87;7.57;;;;;;;;;;5035258;28;20202;-85
2022/03/01 00:51:56;;;;;;;12.63;8.37;;;;;;;;;;5033526;28;20290;-85
2022/03/01 00:54:23;;;;;;;16.87;10.17;;;;;;;;;;5020056;28;20225;-85
2022/03/01 00:56:50;;;;;;;15.23;8.90;;;;;;;;;;5014815;28;20308;-85
2022/03/01 00:59:17;;;;;;;14.77;8.90;;;;;;;;;;5015331;28;20614;-85
2022/03/01 01:01:45;;;;;;;15.90;8.97;;;;;;;;;;5028143;28;20237;-85
2022/03/01 01:04:12;;;;;;;16.70;9.17;;;;;;;;;;5025570;28;20230;-85
2022/03/01 01:06:40;;;;;;;13.57;9.03;;;;;;;;;;5016273;28;20732;-85
2022/03/01 01:09:08;;;;;;;13.93;9.27;;;;;;;;;;5015789;28;20578;-85
2022/03/01 01:11:36;;;;;;;15.07;8.73;;;;;;;;;;5035059;28;20247;-85
2022/03/01 01:14:03;;;;;;;10.97;8.27;;;;;;;;;;5034936;28;20260;-85
2022/03/01 01:16:30;;;;;;;15.40;8.73;;;;;;;;;;5034014;28;20243;-85
2022/03/01 01:18:57;;;;;;;12.13;8.90;;;;;;;;;;5017196;28;20201;-85
2022/03/01 01:22:39;;;;;;;14.73;8.73;;;;;;;;;;5014624;28;20271;-85
2022/03/01 01:24:12;;;;;;;12.67;9.43;;;;;;;;;;5026357;28;20234;-85
2022/03/01 01:26:39;;;;;;;12.37;8.67;;;;;;;;;;5024323;28;20228;-85
2022/03/01 01:29:07;;;;;;;14.87;9.10;;;;;;;;;;5014693;28;20217;-85
2022/03/01 01:31:34;;;;;;;13.23;8.67;;;;;;;;;;5014313;28;20247;-85
2022/03/01 01:34:01;;;;;;;11.77;8.47;;;;;;;;;;5035157;28;20225;-85
2022/03/01 01:36:29;;;;;;;13.33;8.57;;;;;;;;;;5027856;28;20269;-85
2022/03/01 01:38:56;;;;;;;15.80;9.40;;;;;;;;;;5034396;28;20209;-85
2022/03/01 01:41:25;;;;;;;13.23;8.83;;;;;;;;;;5033490;28;20242;-85
2022/03/01 01:43:52;;;;;;;12.63;8.77;;;;;;;;;;5023532;28;20229;-85
2022/03/01 01:46:19;;;;;;;18.53;9.10;;;;;;;;;;5023396;28;20238;-85
2022/03/01 01:48:46;;;;;;;12.43;8.27;;;;;;;;;;5034464;28;20204;-84
2022/03/01 01:51:13;;;;;;;12.97;8.03;;;;;;;;;;5031616;28;20236;-85
2022/03/01 01:53:40;;;;;;;15.93;8.57;;;;;;;;;;5017947;28;20228;-85
2022/03/01 01:56:07;;;;;;;17.53;10.00;;;;;;;;;;5033049;28;20239;-85
2022/03/01 01:58:36;;;;;;;15.03;8.17;;;;;;;;;;5012727;28;20213;-85
2022/03/01 02:01:03;;;;;;;14.20;9.63;;;;;;;;;;4998087;28;20236;-85
2022/03/01 02:03:30;;;;;;;13.77;8.87;;;;;;;;;;5008443;28;20593;-85
2022/03/01 02:05:57;;;;;;;12.23;8.47;;;;;;;;;;5012959;28;20243;-85
2022/03/01 02:08:29;;;;;;;13.97;9.10;;;;;;;;;;5013896;28;20214;-85
2022/03/01 02:10:56;;;;;;;13.80;9.10;;;;;;;;;;5013423;28;20267;-85
2022/03/01 02:13:23;;;;;;;13.40;9.50;;;;;;;;;;5014187;28;20228;-85
2022/03/01 02:15:52;;;;;;;15.83;9.27;;;;;;;;;;5030087;28;20243;-84
2022/03/01 02:18:19;;;;;;;12.27;8.73;;;;;;;;;;5043849;28;20212;-85
2022/03/01 02:20:47;;;;;;;14.10;8.87;;;;;;;;;;5042841;28;20233;-84
2022/03/01 02:23:14;;;;;;;17.97;9.00;;;;;;;;;;5032575;28;20235;-84
2022/03/01 02:25:41;;;;;;;13.43;8.73;;;;;;;;;;5025232;28;20232;-85
2022/03/01 02:28:09;;;;;;;15.93;9.30;;;;;;;;;;5033858;28;20203;-85
2022/03/01 02:30:36;;;;;;;14.27;9.10;;;;;;;;;;4994466;28;20236;-84
2022/03/01 02:33:06;;;;;;;14.30;8.97;;;;;;;;;;5010452;28;20257;-84
2022/03/01 02:35:33;;;;;;;12.23;8.83;;;;;;;;;;5033437;28;20226;-84
2022/03/01 02:38:01;;;;;;;17.00;8.40;;;;;;;;;;5041453;28;20218;-85
2022/03/01 02:40:28;;;;;;;14.53;8.50;;;;;;;;;;5033772;28;20233;-85
2022/03/01 02:42:55;;;;;;;14.97;8.73;;;;;;;;;;5039441;28;20227;-84
2022/03/01 02:45:22;;;;;;;14.90;9.00;;;;;;;;;;5042502;28;20245;-84
2022/03/01 02:47:50;;;;;;;12.43;8.60;;;;;;;;;;5050290;28;20257;-85
2022/03/01 02:50:17;;;;;;;18.17;9.37;;;;;;;;;;5047952;28;20202;-84
2022/03/01 02:52:45;;;;;;;16.57;9.10;;;;;;;;;;5028256;28;20230;-84
2022/03/01 02:55:14;;;;;;;12.70;7.93;;;;;;;;;;5029070;28;20206;-86
2022/03/01 02:57:41;;;;;;;13.60;9.07;;;;;;;;;;5032632;28;20235;-84
2022/03/01 03:00:10;;;;;;;13.33;8.27;;;;;;;;;;5013844;28;20567;-85
2022/03/01 03:02:37;;;;;;;13.63;9.03;;;;;;;;;;5027059;28;20247;-85
2022/03/01 03:05:04;;;;;;;13.27;9.03;;;;;;;;;;5012557;28;20657;-85
2022/03/01 03:07:31;;;;;;;15.47;9.17;;;;;;;;;;5013543;28;20232;-85
2022/03/01 03:09:58;;;;;;;15.83;9.50;;;;;;;;;;5012692;28;20656;-85
2022/03/01 03:12:27;;;;;;;15.67;9.10;;;;;;;;;;5012397;28;20601;-85
2022/03/01 03:14:54;;;;;;;15.40;8.87;;;;;;;;;;5012891;28;20276;-85
2022/03/01 03:17:22;;;;;;;17.17;9.30;;;;;;;;;;5012306;28;20235;-85
2022/03/01 03:19:49;;;;;;;14.87;8.23;;;;;;;;;;5012992;28;20213;-85
2022/03/01 03:22:16;;;;;;;11.50;8.53;;;;;;;;;;5011931;28;20241;-85
2022/03/01 03:24:44;;;;;;;11.83;8.80;;;;;;;;;;5012734;28;20235;-85
2022/03/01 03:27:11;;;;;;;14.70;8.47;;;;;;;;;;5012113;28;20255;-85
2022/03/01 03:29:39;;;;;;;12.17;8.57;;;;;;;;;;5012604;28;20568;-85
2022/03/01 03:32:07;;;;;;;12.93;8.40;;;;;;;;;;5013736;28;20266;-84
2022/03/01 03:34:34;;;;;;;12.97;8.10;;;;;;;;;;5012632;28;20232;-85
2022/03/01 03:37:01;;;;;;;16.87;9.37;;;;;;;;;;5011982;28;20677;-85
2022/03/01 03:39:28;;;;;;;9.57;7.87;;;;;;;;;;5031392;28;20202;-85
2022/03/01 03:41:55;;;;;;;13.43;8.20;;;;;;;;;;5031511;28;20237;-85
2022/03/01 03:44:22;;;;;;;16.00;8.67;;;;;;;;;;5032237;28;20683;-85
2022/03/01 03:46:50;;;;;;;14.63;9.07;;;;;;;;;;5035622;28;20240;-85
2022/03/01 03:49:19;;;;;;;12.90;8.57;;;;;;;;;;5032452;28;20212;-85
2022/03/01 03:51:46;;;;;;;13.80;8.70;;;;;;;;;;5044886;28;20581;-85
2022/03/01 03:54:13;;;;;;;15.20;9.23;;;;;;;;;;5037151;28;20225;-84
2022/03/01 03:56:40;;;;;;;10.77;8.53;;;;;;;;;;5030281;28;20236;-85
2022/03/01 03:59:08;;;;;;;11.97;8.70;;;;;;;;;;5041587;28;20211;-85
2022/03/01 04:01:35;;;;;;;14.40;8.83;;;;;;;;;;5050680;28;20238;-85
2022/03/01 04:04:03;;;;;;;14.83;8.70;;;;;;;;;;5067597;22;20235;-81
2022/03/01 04:06:30;;;;;;;13.90;9.50;;;;;;;;;;5045632;28;20231;-81
2022/03/01 04:08:57;;;;;;;13.43;8.20;;;;;;;;;;5056296;28;20607;-81
2022/03/01 04:11:25;;;;;;;14.30;8.80;;;;;;;;;;5054830;28;20242;-81
2022/03/01 04:13:53;;;;;;;15.60;8.30;;;;;;;;;;5055816;28;20222;-81
2022/03/01 04:16:20;;;;;;;18.10;9.07;;;;;;;;;;5039220;28;20250;-81
2022/03/01 04:18:47;;;;;;;12.60;8.70;;;;;;;;;;5056284;28;20206;-81
2022/03/01 04:21:16;;;;;;;19.77;9.73;;;;;;;;;;5055498;28;20230;-81
2022/03/01 04:23:43;;;;;;;14.03;9.10;;;;;;;;;;5055575;28;20234;-81
2022/03/01 04:26:10;;;;;;;17.20;8.93;;;;;;;;;;5044631;28;20233;-82
2022/03/01 04:28:38;;;;;;;13.47;8.30;;;;;;;;;;5035134;28;20211;-81
2022/03/01 04:31:05;;;;;;;12.03;8.57;;;;;;;;;;5034817;28;20234;-82
2022/03/01 04:33:32;;;;;;;14.43;8.67;;;;;;;;;;5036130;28;20258;-82
2022/03/01 04:36:02;;;;;;;12.40;7.87;;;;;;;;;;5035086;28;20234;-81
2022/03/01 04:38:30;;;;;;;13.23;8.47;;;;;;;;;;5035162;28;20302;-82
2022/03/01 04:40:57;;;;;;;14.47;8.70;;;;;;;;;;5035147;28;20784;-81
2022/03/01 04:43:24;;;;;;;13.70;9.03;;;;;;;;;;5036137;28;20309;-82
2022/03/01 04:45:51;;;;;;;15.57;8.97;;;;;;;;;;5034876;28;20242;-82
2022/03/01 04:48:19;;;;;;;14.47;9.43;;;;;;;;;;5037171;28;20207;-81
2022/03/01 04:50:46;;;;;;;12.00;8.93;;;;;;;;;;5038995;28;20237;-82
2022/03/01 04:53:13;;;;;;;12.67;8.63;;;;;;;;;;5039369;28;20234;-82
2022/03/01 04:55:41;;;;;;;14.30;9.60;;;;;;;;;;5037799;28;20659;-82
2022/03/01 04:58:09;;;;;;;15.00;8.47;;;;;;;;;;5037317;28;20576;-82
2022/03/01 05:00:36;;;;;;;15.43;9.03;;;;;;;;;;5037964;28;20245;-82
2022/03/01 05:03:03;;;;;;;11.57;8.70;;;;;;;;;;5042130;28;20227;-81
2022/03/01 05:05:30;;;;;;;12.73;9.20;;;;;;;;;;5016058;28;20238;-82
2022/03/01 05:07:57;;;;;;;16.63;9.20;;;;;;;;;;5026065;28;20572;-81
2022/03/01 05:10:24;;;;;;;15.83;9.83;;;;;;;;;;5041978;28;20229;-82
2022/03/01 05:12:54;;;;;;;15.23;9.10;;;;;;;;;;5040217;28;20222;-82
2022/03/01 05:15:21;;;;;;;18.90;9.23;;;;;;;;;;5037915;28;20570;-81
2022/03/01 05:17:48;;;;;;;13.13;9.03;;;;;;;;;;5040237;28;20203;-81
2022/03/01 05:20:16;;;;;;;16.47;9.70;;;;;;;;;;5037628;28;20234;-81
2022/03/01 05:22:43;;;;;;;15.73;9.07;;;;;;;;;;5035049;28;20227;-82
2022/03/01 05:25:12;;;;;;;14.83;9.40;;;;;;;;;;5034954;28;20709;-81
2022/03/01 05:27:39;;;;;;;14.20;9.30;;;;;;;;;;5035172;28;20206;-81
2022/03/01 05:30:08;;;;;;;15.83;9.00;;;;;;;;;;5034744;28;20213;-81
2022/03/01 05:32:36;;;;;;;14.17;8.97;;;;;;;;;;5035011;28;20230;-80
2022/03/01 05:35:03;;;;;;;14.50;9.03;;;;;;;;;;5035033;28;20629;-80
2022/03/01 05:37:30;;;;;;;15.57;9.90;;;;;;;;;;5035890;28;20675;-81
2022/03/01 05:39:57;;;;;;;14.70;9.63;;;;;;;;;;5035366;28;20613;-81
2022/03/01 05:42:24;;;;;;;21.43;9.97;;;;;;;;;;5034771;28;20217;-84
2022/03/01 05:44:51;;;;;;;14.60;9.30;;;;;;;;;;5027657;28;20741;-81
2022/03/01 05:47:20;;;;;;;14.90;9.30;;;;;;;;;;5035531;28;20238;-81
2022/03/01 05:49:47;;;;;;;14.03;9.50;;;;;;;;;;5036084;28;20534;-82
2022/03/01 05:52:14;;;;;;;15.80;11.07;;;;;;;;;;5035197;28;20246;-83
2022/03/01 05:54:41;;;;;;;21.27;11.97;;;;;;;;;;5036172;28;20202;-81
2022/03/01 05:57:08;;;;;;;23.20;12.93;;;;;;;;;;5031045;28;20223;-81
2022/03/01 05:59:35;;;;;;;15.13;10.70;;;;;;;;;;5033207;28;20203;-84
2022/03/01 06:02:02;;;;;;;14.87;9.83;;;;;;;;;;5036052;28;20238;-81
2022/03/01 06:04:31;;;;;;;15.80;10.63;;;;;;;;;;5036439;28;20605;-81
2022/03/01 06:06:58;;;;;;;17.17;10.10;;;;;;;;;;5036038;28;20249;-81
2022/03/01 06:09:25;;;;;;;14.27;8.93;;;;;;;;;;5036589;28;20202;-83
2022/03/01 06:11:52;;;;;;;14.03;9.20;;;;;;;;;;5037976;28;20246;-83
2022/03/01 06:14:19;;;;;;;16.97;9.10;;;;;;;;;;5039735;28;20226;-83
2022/03/01 06:16:46;;;;;;;15.57;10.30;;;;;;;;;;5038150;28;20706;-82
2022/03/01 06:19:13;;;;;;;13.77;9.17;;;;;;;;;;5038332;28;20203;-83
2022/03/01 06:21:42;;;;;;;16.43;9.13;;;;;;;;;;5051252;28;20248;-83
2022/03/01 06:24:09;;;;;;;13.53;9.40;;;;;;;;;;5058554;28;20733;-83
2022/03/01 06:26:36;;;;;;;15.20;8.40;;;;;;;;;;5057164;28;20234;-83
2022/03/01 06:29:05;;;;;;;14.30;9.40;;;;;;;;;;5056420;28;20666;-82
2022/03/01 06:31:32;;;;;;;12.80;9.57;;;;;;;;;;5043148;28;20317;-82
2022/03/01 06:33:59;;;;;;;12.77;9.37;;;;;;;;;;5042327;28;20227;-82
2022/03/01 06:36:26;;;;;;;18.23;10.00;;;;;;;;;;5049856;28;20226;-83
2022/03/01 06:38:55;;;;;;;15.20;9.63;;;;;;;;;;5052058;28;20214;-84
2022/03/01 06:41:22;;;;;;;20.07;9.53;;;;;;;;;;5051287;28;20236;-82
2022/03/01 06:43:49;;;;;;;17.40;10.13;;;;;;;;;;5049469;28;20222;-83
2022/03/01 06:46:16;;;;;;;15.87;9.53;;;;;;;;;;5047191;28;20231;-84
2022/03/01 06:48:43;;;;;;;10.67;8.60;;;;;;;;;;5036684;28;20215;-83
2022/03/01 06:51:10;;;;;;;15.03;9.63;;;;;;;;;;5038111;28;20241;-83
2022/03/01 06:53:38;;;;;;;16.47;10.50;;;;;;;;;;5036848;28;20218;-83
2022/03/01 06:56:07;;;;;;;21.53;10.67;;;;;;;;;;5033801;28;20259;-83
2022/03/01 06:58:34;;;;;;;15.27;9.83;;;;;;;;;;5035684;28;20256;-83
2022/03/01 07:01:02;;;;;;;16.20;9.77;;;;;;;;;;5041420;28;20235;-83
2022/03/01 07:03:29;;;;;;;15.57;9.60;;;;;;;;;;5041823;28;20222;-83
2022/03/01 07:05:56;;;;;;;14.50;9.70;;;;;;;;;;5038005;28;20235;-83
2022/03/01 07:08:24;;;;;;;14.47;9.50;;;;;;;;;;5031330;28;20194;-84
2022/03/01 07:10:51;;;;;;;14.70;9.70;;;;;;;;;;5028761;28;20318;-83
2022/03/01 07:13:19;;;;;;;14.63;10.17;;;;;;;;;;5031551;28;20298;-83
2022/03/01 07:15:47;;;;;;;19.20;10.43;;;;;;;;;;5047181;28;20233;-83
2022/03/01 07:18:14;;;;;;;17.20;10.23;;;;;;;;;;5061400;28;20202;-82
2022/03/01 07:20:41;;;;;;;14.40;10.27;;;;;;;;;;5055349;28;20254;-82
2022/03/01 07:23:08;;;;;;;15.27;9.43;;;;;;;;;;5040638;28;20222;-83
2022/03/01 07:25:35;;;;;;;15.23;9.73;;;;;;;;;;5040261;28;20238;-83
2022/03/01 07:28:02;;;;;;;14.53;10.20;;;;;;;;;;5041151;28;20218;-83
2022/03/01 07:30:31;;;;;;;17.20;10.20;;;;;;;;;;5035519;28;20257;-83
2022/03/01 07:32:59;;;;;;;21.80;9.50;;;;;;;;;;5040623;28;20237;-83
2022/03/01 07:35:26;;;;;;;15.83;10.37;;;;;;;;;;5038861;28;20238;-83
2022/03/01 07:37:53;;;;;;;15.13;10.37;;;;;;;;;;5040558;28;20525;-83
2022/03/01 07:40:22;;;;;;;18.40;9.70;;;;;;;;;;5036369;28;20231;-83
2022/03/01 07:42:50;;;;;;;17.47;9.83;;;;;;;;;;5020214;28;20227;-82
2022/03/01 07:45:17;;;;;;;14.40;8.63;;;;;;;;;;5019741;28;20248;-82
2022/03/01 07:47:45;;;;;;;14.30;9.50;;;;;;;;;;5023135;28;20209;-83
2022/03/01 07:50:13;;;;;;;13.40;8.70;;;;;;;;;;5038085;28;20214;-83
2022/03/01 07:52:40;;;;;;;16.37;9.67;;;;;;;;;;5039093;28;20237;-83
2022/03/01 07:55:08;;;;;;;18.33;10.30;;;;;;;;;;5037701;28;20207;-83
2022/03/01 07:57:35;;;;;;;12.40;8.70;;;;;;;;;;5038152;28;20222;-83
2022/03/01 08:00:02;;;;;;;16.87;9.70;;;;;;;;;;5038488;28;20206;-83
2022/03/01 08:02:29;;;;;;;14.27;9.60;;;;;;;;;;5039397;28;20206;-83
2022/03/01 08:05:00;;;;;;;15.97;9.33;;;;;;;;;;5038673;28;20222;-83
2022/03/01 08:07:28;;;;;;;12.60;9.33;;;;;;;;;;5019041;28;20641;-83
2022/03/01 08:09:55;;;;;;;16.57;9.67;;;;;;;;;;5018983;28;20319;-84
2022/03/01 08:12:22;;;;;;;14.53;9.83;;;;;;;;;;5018223;28;20224;-83
2022/03/01 08:14:49;;;;;;;14.77;9.73;;;;;;;;;;5019909;28;20210;-82
2022/03/01 08:17:17;;;;;;;14.50;9.77;;;;;;;;;;5018317;28;20243;-83
2022/03/01 08:19:44;;;;;;;12.87;8.50;;;;;;;;;;5018891;28;20239;-83
2022/03/01 08:22:12;;;;;;;12.10;9.17;;;;;;;;;;5018044;28;20251;-83
2022/03/01 08:24:39;;;;;;;16.57;9.07;;;;;;;;;;5021792;28;20289;-83
2022/03/01 08:27:06;;;;;;;12.07;8.53;;;;;;;;;;5032587;28;20258;-83
2022/03/01 08:29:33;;;;;;;13.17;8.90;;;;;;;;;;5035107;28;20195;-83
2022/03/01 08:32:01;;;;;;;15.67;9.23;;;;;;;;;;5029884;28;20764;-83
2022/03/01 08:34:28;;;;;;;10.43;7.97;;;;;;;;;;5053879;28;20226;-83
2022/03/01 08:36:55;;;;;;;12.77;8.17;;;;;;;;;;5022700;28;20240;-83
2022/03/01 08:39:24;;;;;;;15.23;9.07;;;;;;;;;;5022448;28;20205;-83
2022/03/01 08:41:54;;;;;;;12.77;8.37;;;;;;;;;;5032916;28;20661;-83
2022/03/01 08:44:21;;;;;;;12.80;8.13;;;;;;;;;;5030952;28;20225;-81
2022/03/01 08:46:48;;;;;;;18.17;8.40;;;;;;;;;;5029040;28;20285;-82
2022/03/01 08:49:15;;;;;;;18.00;8.53;;;;;;;;;;5034802;28;20212;-82
2022/03/01 08:51:42;;;;;;;13.17;8.07;;;;;;;;;;5052107;28;20224;-83
2022/03/01 08:54:09;;;;;;;9.53;8.13;;;;;;;;;;5062369;28;20234;-83
2022/03/01 08:56:38;;;;;;;12.47;7.73;;;;;;;;;;5048452;28;20312;-82
2022/03/01 08:59:06;;;;;;;8.27;5.57;;;;;;;;;;5042575;28;20204;-83
2022/03/01 09:01:33;;;;;;;13.43;7.70;;;;;;;;;;5042148;28;20249;-83
2022/03/01 09:04:00;;;;;;;13.17;8.53;;;;;;;;;;5025604;28;20229;-83
2022/03/01 09:06:27;;;;;;;9.80;6.73;;;;;;;;;;5041229;28;20258;-82
2022/03/01 09:08:54;;;;;;;10.80;7.93;;;;;;;;;;5043810;28;20209;-83
2022/03/01 09:11:22;;;;;;;9.43;7.20;;;;;;;;;;5041640;28;20237;-82
2022/03/01 09:13:50;;;;;;;11.53;7.13;;;;;;;;;;5042747;28;20222;-83
2022/03/01 09:16:17;;;;;;;7.80;5.77;;;;;;;;;;5041912;28;20275;-82
2022/03/01 09:18:45;;;;;;;8.93;6.27;;;;;;;;;;5041857;28;20214;-82
2022/03/01 09:21:12;;;;;;;11.70;7.90;;;;;;;;;;5040352;28;20243;-82
2022/03/01 09:23:39;;;;;;;10.97;8.07;;;;;;;;;;5040020;28;20226;-83
2022/03/01 09:26:06;;;;;;;8.70;7.30;;;;;;;;;;5039928;28;20709;-83
2022/03/01 09:28:33;;;;;;;9.80;7.47;;;;;;;;;;5041373;28;20226;-82
2022/03/01 09:31:02;;;;;;;10.20;7.10;;;;;;;;;;5042341;28;20239;-83
2022/03/01 09:33:29;;;;;;;9.07;7.07;;;;;;;;;;5041175;28;20223;-82
2022/03/01 09:35:56;;;;;;;9.80;7.00;;;;;;;;;;5045632;28;20326;-83
2022/03/01 09:38:24;;;;;;;10.13;7.53;;;;;;;;;;5041655;28;20195;-83
2022/03/01 09:40:51;;;;;;;12.47;7.53;;;;;;;;;;5040844;28;20234;-82
2022/03/01 09:43:20;;;;;;;10.47;7.03;;;;;;;;;;5042237;28;20219;-82
2022/03/01 09:45:47;;;;;;;10.87;7.57;;;;;;;;;;5040982;28;20235;-82
2022/03/01 09:48:16;;;;;;;12.13;7.30;;;;;;;;;;5048730;28;20202;-83
2022/03/01 09:50:43;;;;;;;9.20;6.57;;;;;;;;;;5057103;28;20238;-83
2022/03/01 09:53:10;;;;;;;11.70;6.57;;;;;;;;;;5045590;28;20660;-82
2022/03/01 09:55:37;;;;;;;8.53;6.17;;;;;;;;;;5044135;28;20235;-83
2022/03/01 09:58:04;;;;;;;10.03;7.00;;;;;;;;;;5044279;28;20216;-84
2022/03/01 10:00:32;;;;;;;9.33;5.93;;;;;;;;;;5042685;28;20238;-82
2022/03/01 10:02:59;;;;;;;12.53;6.87;;;;;;;;;;5063787;22;20255;-87
2022/03/01 10:05:35;;;;;;;15.47;7.17;;;;;;;;;;5052304;28;20243;-88
2022/03/01 10:08:09;;;;;;;10.40;6.90;;;;;;;;;;5033678;28;20411;-87
2022/03/01 10:10:41;;;;;;;9.83;6.93;;;;;;;;;;5053584;28;20237;-87
2022/03/01 10:13:09;;;;;;;10.90;6.67;;;;;;;;;;5065519;28;20219;-87
2022/03/01 10:15:39;;;;;;;6.87;6.03;;;;;;;;;;5055318;28;20630;-87
2022/03/01 10:18:10;;;;;;;9.60;5.67;;;;;;;;;;5053122;28;20192;-88
2022/03/01 10:20:40;;;;;;;9.07;5.97;;;;;;;;;;5052710;28;20234;-88
2022/03/01 10:23:08;;;;;;;11.40;5.97;;;;;;;;;;5053160;28;20276;-88
2022/03/01 10:25:36;;;;;;;9.57;6.30;;;;;;;;;;5052523;28;20736;-87
2022/03/01 10:28:03;;;;;;;7.63;5.97;;;;;;;;;;5059379;28;20202;-87
2022/03/01 10:30:31;;;;;;;8.77;6.53;;;;;;;;;;5060908;28;20254;-87
2022/03/01 10:33:06;;;;;;;9.43;6.63;;;;;;;;;;5076537;28;20244;-87
2022/03/01 10:35:33;;;;;;;7.50;6.30;;;;;;;;;;5071385;28;20238;-87
2022/03/01 10:38:02;;;;;;;8.27;5.57;;;;;;;;;;5054714;28;20208;-90
2022/03/01 10:40:29;;;;;;;8.37;6.77;;;;;;;;;;5053357;28;20241;-90
2022/03/01 10:43:05;;;;;;;7.67;6.00;;;;;;;;;;5060215;28;20229;-90
2022/03/01 10:45:33;;;;;;;9.47;6.77;;;;;;;;;;5055750;28;20236;-89
2022/03/01 10:48:01;;;;;;;7.77;6.00;;;;;;;;;;5075120;28;20284;-90
2022/03/01 10:50:28;;;;;;;8.90;6.43;;;;;;;;;;5054818;28;20234;-90
2022/03/01 10:52:55;;;;;;;8.47;5.83;;;;;;;;;;5053187;28;20204;-90
2022/03/01 10:55:24;;;;;;;8.73;6.20;;;;;;;;;;5051704;28;20230;-90
2022/03/01 10:58:01;;;;;;;7.53;5.87;;;;;;;;;;5052719;28;20576;-90
2022/03/01 11:00:28;;;;;;;10.80;5.30;;;;;;;;;;5053471;28;20233;-90
2022/03/01 11:02:56;;;;;;;9.53;6.33;;;;;;;;;;5052389;28;20230;-90
2022/03/01 11:05:23;;;;;;;8.83;6.10;;;;;;;;;;5053069;28;20236;-88
2022/03/01 11:07:51;;;;;;;6.77;5.73;;;;;;;;;;5052153;28;20217;-88
2022/03/01 11:10:18;;;;;;;10.53;6.47;;;;;;;;;;5051732;28;20303;-90
2022/03/01 11:12:48;;;;;;;12.17;6.03;;;;;;;;;;5056294;28;20209;-90
2022/03/01 11:15:20;;;;;;;10.27;6.17;;;;;;;;;;5071170;28;20577;-90
2022/03/01 11:17:52;;;;;;;7.50;6.00;;;;;;;;;;5071933;28;20197;-90
2022/03/01 11:20:22;;;;;;;8.13;5.80;;;;;;;;;;5065200;28;20317;-88
2022/03/01 11:22:50;;;;;;;8.60;5.70;;;;;;;;;;5058313;28;20714;-90
2022/03/01 11:25:18;;;;;;;8.33;6.07;;;;;;;;;;5054386;28;20229;-90
2022/03/01 11:27:49;;;;;;;9.50;5.40;;;;;;;;;;5059302;28;20699;-90
2022/03/01 11:30:17;;;;;;;8.90;5.90;;;;;;;;;;5051851;28;20209;-88
2022/03/01 11:32:44;;;;;;;7.63;5.73;;;;;;;;;;5051255;28;20210;-89
2022/03/01 11:35:22;;;;;;;6.77;5.30;;;;;;;;;;5050609;28;20260;-89
2022/03/01 11:37:59;;;;;;;9.33;6.07;;;;;;;;;;5051339;28;20731;-89
2022/03/01 11:40:26;;;;;;;6.07;5.40;;;;;;;;;;5051133;28;20276;-89
2022/03/01 11:42:55;;;;;;;8.50;5.73;;;;;;;;;;5051989;28;20222;-90
2022/03/01 11:45:33;;;;;;;8.67;5.53;;;;;;;;;;5051008;28;20226;-89
2022/03/01 11:48:03;;;;;;;6.93;5.80;;;;;;;;;;5052325;28;20674;-91
2022/03/01 11:50:31;;;;;;;7.93;5.23;;;;;;;;;;5052446;28;20785;-90
2022/03/01 11:53:00;;;;;;;7.43;5.23;;;;;;;;;;5052846;28;20234;-89
2022/03/01 11:55:33;;;;;;;8.10;5.87;;;;;;;;;;5051934;28;20248;-90
2022/03/01 11:58:02;;;;;;;7.43;5.30;;;;;;;;;;5055295;28;20198;-90
2022/03/01 12:00:29;;;;;;;6.73;5.70;;;;;;;;;;5056368;28;20240;-90
2022/03/01 12:02:59;;;;;;;7.80;5.50;;;;;;;;;;5068294;28;20236;-91
2022/03/01 12:05:28;;;;;;;7.30;6.13;;;;;;;;;;5076375;28;20306;-90
2022/03/01 12:07:56;;;;;;;8.17;5.80;;;;;;;;;;5076513;28;20225;-90
2022/03/01 12:10:24;;;;;;;7.70;5.40;;;;;;;;;;5076551;28;20229;-90
2022/03/01 12:12:54;;;;;;;7.40;5.23;;;;;;;;;;5076307;28;20186;-89
2022/03/01 12:15:32;;;;;;;8.53;5.73;;;;;;;;;;5075210;28;20232;-90
2022/03/01 12:17:59;;;;;;;7.50;5.63;;;;;;;;;;5076465;28;20190;-89
2022/03/01 12:20:27;;;;;;;6.70;5.20;;;;;;;;;;5075819;28;20281;-90
2022/03/01 12:22:55;;;;;;;7.50;5.73;;;;;;;;;;5076355;28;20619;-90
2022/03/01 12:25:22;;;;;;;9.17;5.30;;;;;;;;;;5074772;28;20236;-90
2022/03/01 12:27:50;;;;;;;8.17;5.73;;;;;;;;;;5056323;28;20232;-89
2022/03/01 12:30:19;;;;;;;7.27;5.23;;;;;;;;;;5055901;28;20242;-90
2022/03/01 12:32:51;;;;;;;9.00;5.47;;;;;;;;;;5056846;28;20212;-90
2022/03/01 12:35:18;;;;;;;6.33;5.40;;;;;;;;;;5055488;28;20252;-90
2022/03/01 12:37:45;;;;;;;6.90;5.17;;;;;;;;;;5055982;28;20209;-90
2022/03/01 12:40:13;;;;;;;8.37;5.33;;;;;;;;;;5055311;28;20601;-88
2022/03/01 12:42:40;;;;;;;6.23;5.23;;;;;;;;;;5055579;28;20670;-90
2022/03/01 12:45:07;;;;;;;7.90;5.87;;;;;;;;;;5055327;28;20186;-90
2022/03/01 12:47:39;;;;;;;8.40;5.17;;;;;;;;;;5056401;28;20309;-90
2022/03/01 12:50:16;;;;;;;6.87;5.00;;;;;;;;;;5055653;28;20197;-90
2022/03/01 12:52:52;;;;;;;6.03;4.93;;;;;;;;;;5056536;28;20277;-89
2022/03/01 12:55:20;;;;;;;8.37;5.80;;;;;;;;;;5055138;28;20225;-90
2022/03/01 12:57:47;;;;;;;7.63;5.33;;;;;;;;;;5056300;28;20206;-90
2022/03/01 13:00:14;;;;;;;6.37;5.00;;;;;;;;;;5068852;28;20220;-89
2022/03/01 13:02:50;;;;;;;7.87;5.00;;;;;;;;;;5076747;28;20568;-90
2022/03/01 13:05:24;;;;;;;7.47;5.60;;;;;;;;;;5062108;28;20269;-89
2022/03/01 13:07:51;;;;;;;6.90;5.03;;;;;;;;;;5056241;28;20214;-89
2022/03/01 13:10:27;;;;;;;6.83;4.90;;;;;;;;;;5067992;28;20240;-90
2022/03/01 13:12:54;;;;;;;9.30;5.53;;;;;;;;;;5076010;28;20200;-90
2022/03/01 13:15:22;;;;;;;8.40;5.67;;;;;;;;;;5083767;28;20311;-89
2022/03/01 13:17:52;;;;;;;6.17;5.10;;;;;;;;;;5075852;28;20271;-89
2022/03/01 13:20:20;;;;;;;5.43;4.83;;;;;;;;;;5075378;28;20712;-89
2022/03/01 13:22:58;;;;;;;7.20;5.23;;;;;;;;;;5075838;28;20292;-88
2022/03/01 13:25:25;;;;;;;7.00;5.43;;;;;;;;;;5074860;28;20252;-89
2022/03/01 13:27:53;;;;;;;5.63;4.87;;;;;;;;;;5075919;28;20342;-89
2022/03/01 13:30:22;;;;;;;6.57;5.47;;;;;;;;;;5074804;28;20232;-89
2022/03/01 13:32:50;;;;;;;7.53;4.73;;;;;;;;;;5075701;28;20202;-89
2022/03/01 13:35:17;;;;;;;7.37;5.07;;;;;;;;;;5074975;28;20233;-89
2022/03/01 13:37:44;;;;;;;10.17;5.33;;;;;;;;;;5075183;28;20205;-89
2022/03/01 13:40:15;;;;;;;5.13;4.63;;;;;;;;;;5075282;28;20209;-89
2022/03/01 13:42:43;;;;;;;7.00;4.60;;;;;;;;;;5075499;28;20203;-89
2022/03/01 13:45:11;;;;;;;6.40;5.03;;;;;;;;;;5075141;28;20292;-88
2022/03/01 13:47:38;;;;;;;7.10;5.23;;;;;;;;;;5075676;28;20715;-89
2022/03/01 13:50:07;;;;;;;6.50;5.43;;;;;;;;;;5076152;28;20208;-89
2022/03/01 13:52:36;;;;;;;6.30;4.93;;;;;;;;;;5075288;28;20208;-89
2022/03/01 13:55:06;;;;;;;6.57;5.10;;;;;;;;;;5074320;28;20569;-89
2022/03/01 13:57:35;;;;;;;7.50;4.63;;;;;;;;;;5075122;28;20559;-89
2022/03/01 14:00:05;;;;;;;7.27;5.00;;;;;;;;;;5075958;28;20235;-89
2022/03/01 14:02:32;;;;;;;7.37;5.03;;;;;;;;;;5075393;28;20212;-90
2022/03/01 14:05:00;;;;;;;5.90;4.90;;;;;;;;;;5057538;28;20234;-89
2022/03/01 14:07:27;;;;;;;6.50;4.87;;;;;;;;;;5055084;28;20725;-89
2022/03/01 14:09:55;;;;;;;6.73;4.80;;;;;;;;;;5070351;28;20291;-89
2022/03/01 14:12:31;;;;;;;6.00;4.83;;;;;;;;;;5034621;28;20225;-89
2022/03/01 14:14:59;;;;;;;6.30;4.50;;;;;;;;;;5034691;28;20230;-89
2022/03/01 14:17:26;;;;;;;8.47;5.47;;;;;;;;;;5041538;28;20298;-89
2022/03/01 14:19:54;;;;;;;6.60;5.30;;;;;;;;;;5034714;28;20199;-89
2022/03/01 14:22:23;;;;;;;6.43;4.93;;;;;;;;;;5034258;28;20234;-89
2022/03/01 14:24:50;;;;;;;8.23;5.20;;;;;;;;;;5034748;28;20730;-89
2022/03/01 14:27:18;;;;;;;8.40;5.38;;;;;;;;;;5034477;28;20234;-89
2022/03/01 14:29:45;;;;;;;7.00;5.15;;;;;;;;;;5034684;28;20666;-89
2022/03/01 14:32:14;;;;;;;5.35;4.85;;;;;;;;;;5034048;28;20237;-89
2022/03/01 14:34:41;;;;;;;6.00;5.07;;;;;;;;;;5049063;28;20225;-89
2022/03/01 14:37:09;;;;;;;5.35;4.85;;;;;;;;;;5054726;28;20221;-89